sensor_id;sensor_type;location;lat;lon;timestamp;pressure;altitude;pressure_sealevel;temperature;humidity
80624;BME280;70269;44.768;9.600;2023-09-07T00:00:10;98039.69;;;14.45;77.15
80624;BME280;70269;44.768;9.600;2023-09-07T00:02:37;98039.47;;;14.47;76.76
80624;BME280;70269;44.768;9.600;2023-09-07T00:05:05;98044.06;;;14.46;76.54
80624;BME280;70269;44.768;9.600;2023-09-07T00:07:31;98036.13;;;14.45;76.68
80624;BME280;70269;44.768;9.600;2023-09-07T00:09:57;98044.28;;;14.45;76.83
80624;BME280;70269;44.768;9.600;2023-09-07T00:12:22;98038.47;;;14.41;76.86
80624;BME280;70269;44.768;9.600;2023-09-07T00:14:48;98039.53;;;14.40;76.99
80624;BME280;70269;44.768;9.600;2023-09-07T00:17:13;98034.97;;;14.34;77.12
80624;BME280;70269;44.768;9.600;2023-09-07T00:19:39;98028.31;;;14.30;77.53
80624;BME280;70269;44.768;9.600;2023-09-07T00:22:04;98032.09;;;14.29;77.52
80624;BME280;70269;44.768;9.600;2023-09-07T00:24:30;98025.59;;;14.30;77.53
80624;BME280;70269;44.768;9.600;2023-09-07T00:26:57;98024.16;;;14.28;77.37
80624;BME280;70269;44.768;9.600;2023-09-07T00:29:23;98022.53;;;14.20;77.59
80624;BME280;70269;44.768;9.600;2023-09-07T00:31:48;98021.78;;;14.13;77.75
80624;BME280;70269;44.768;9.600;2023-09-07T00:34:14;98017.41;;;14.12;78.43
80624;BME280;70269;44.768;9.600;2023-09-07T00:36:39;98020.94;;;14.12;78.03
80624;BME280;70269;44.768;9.600;2023-09-07T00:39:05;98018.03;;;14.07;78.27
80624;BME280;70269;44.768;9.600;2023-09-07T00:41:30;98022.72;;;14.00;78.64
80624;BME280;70269;44.768;9.600;2023-09-07T00:43:56;98008.91;;;14.02;78.71
80624;BME280;70269;44.768;9.600;2023-09-07T00:46:21;98017.44;;;14.05;78.44
80624;BME280;70269;44.768;9.600;2023-09-07T00:48:48;98016.63;;;14.05;78.41
80624;BME280;70269;44.768;9.600;2023-09-07T00:51:14;98013.50;;;14.01;79.01
80624;BME280;70269;44.768;9.600;2023-09-07T00:53:40;98022.53;;;13.95;79.38
80624;BME280;70269;44.768;9.600;2023-09-07T00:56:07;98028.00;;;13.89;79.60
80624;BME280;70269;44.768;9.600;2023-09-07T00:58:33;98029.91;;;13.88;79.64
80624;BME280;70269;44.768;9.600;2023-09-07T01:00:59;98023.88;;;13.86;79.40
80624;BME280;70269;44.768;9.600;2023-09-07T01:03:25;98022.25;;;13.78;79.64
80624;BME280;70269;44.768;9.600;2023-09-07T01:08:24;98023.31;;;13.71;80.15
80624;BME280;70269;44.768;9.600;2023-09-07T01:10:50;98017.25;;;13.75;79.81
80624;BME280;70269;44.768;9.600;2023-09-07T01:13:15;98024.78;;;13.73;79.63
80624;BME280;70269;44.768;9.600;2023-09-07T01:15:41;98011.88;;;13.69;79.90
80624;BME280;70269;44.768;9.600;2023-09-07T01:18:07;98020.66;;;13.64;80.29
80624;BME280;70269;44.768;9.600;2023-09-07T01:20:34;98018.19;;;13.63;80.45
80624;BME280;70269;44.768;9.600;2023-09-07T01:23:00;98021.94;;;13.62;80.46
80624;BME280;70269;44.768;9.600;2023-09-07T01:25:27;98025.69;;;13.61;80.35
80624;BME280;70269;44.768;9.600;2023-09-07T01:27:53;98019.22;;;13.62;80.33
80624;BME280;70269;44.768;9.600;2023-09-07T01:30:20;98023.16;;;13.66;80.01
80624;BME280;70269;44.768;9.600;2023-09-07T01:32:46;98015.47;;;13.63;80.43
80624;BME280;70269;44.768;9.600;2023-09-07T01:35:14;98006.28;;;13.64;80.39
80624;BME280;70269;44.768;9.600;2023-09-07T01:37:42;98000.22;;;13.62;80.31
80624;BME280;70269;44.768;9.600;2023-09-07T01:40:07;98009.63;;;13.59;80.58
80624;BME280;70269;44.768;9.600;2023-09-07T01:42:34;98007.38;;;13.56;80.87
80624;BME280;70269;44.768;9.600;2023-09-07T01:44:59;98006.13;;;13.52;80.97
80624;BME280;70269;44.768;9.600;2023-09-07T01:47:25;97997.97;;;13.52;81.27
80624;BME280;70269;44.768;9.600;2023-09-07T01:49:50;98005.06;;;13.53;80.71
80624;BME280;70269;44.768;9.600;2023-09-07T01:52:16;98004.25;;;13.53;80.86
80624;BME280;70269;44.768;9.600;2023-09-07T01:54:42;97999.84;;;13.52;80.72
80624;BME280;70269;44.768;9.600;2023-09-07T01:57:07;97999.06;;;13.51;81.05
80624;BME280;70269;44.768;9.600;2023-09-07T01:59:33;98001.78;;;13.51;81.05
80624;BME280;70269;44.768;9.600;2023-09-07T02:01:58;97999.06;;;13.51;81.07
80624;BME280;70269;44.768;9.600;2023-09-07T02:04:24;98002.81;;;13.50;81.13
80624;BME280;70269;44.768;9.600;2023-09-07T02:06:49;98004.47;;;13.51;80.74
80624;BME280;70269;44.768;9.600;2023-09-07T02:09:15;98001.31;;;13.54;80.79
80624;BME280;70269;44.768;9.600;2023-09-07T02:11:41;98003.81;;;13.56;80.50
80624;BME280;70269;44.768;9.600;2023-09-07T02:14:06;97999.66;;;13.53;80.96
80624;BME280;70269;44.768;9.600;2023-09-07T02:16:33;98003.66;;;13.51;80.98
80624;BME280;70269;44.768;9.600;2023-09-07T02:19:02;98007.00;;;13.46;81.16
80624;BME280;70269;44.768;9.600;2023-09-07T02:21:34;98007.88;;;13.40;81.30
80624;BME280;70269;44.768;9.600;2023-09-07T02:24:00;98003.09;;;13.35;81.28
80624;BME280;70269;44.768;9.600;2023-09-07T02:26:25;98004.16;;;13.34;81.92
80624;BME280;70269;44.768;9.600;2023-09-07T02:28:51;98009.81;;;13.33;82.01
80624;BME280;70269;44.768;9.600;2023-09-07T02:31:16;97998.50;;;13.36;81.68
80624;BME280;70269;44.768;9.600;2023-09-07T02:33:42;97996.41;;;13.38;81.89
80624;BME280;70269;44.768;9.600;2023-09-07T02:36:08;97996.41;;;13.38;81.52
80624;BME280;70269;44.768;9.600;2023-09-07T02:38:33;98006.22;;;13.39;81.38
80624;BME280;70269;44.768;9.600;2023-09-07T02:40:59;98006.81;;;13.41;81.64
80624;BME280;70269;44.768;9.600;2023-09-07T02:43:25;97998.88;;;13.40;81.55
80624;BME280;70269;44.768;9.600;2023-09-07T02:45:50;98009.13;;;13.44;81.07
80624;BME280;70269;44.768;9.600;2023-09-07T02:48:18;97999.13;;;13.38;81.36
80624;BME280;70269;44.768;9.600;2023-09-07T02:50:43;97997.69;;;13.29;81.66
80624;BME280;70269;44.768;9.600;2023-09-07T02:53:14;98001.25;;;13.29;81.98
80624;BME280;70269;44.768;9.600;2023-09-07T02:55:40;97998.16;;;13.26;82.03
80624;BME280;70269;44.768;9.600;2023-09-07T02:58:05;97991.47;;;13.22;82.16
80624;BME280;70269;44.768;9.600;2023-09-07T03:00:31;97996.31;;;13.20;82.27
80624;BME280;70269;44.768;9.600;2023-09-07T03:02:59;98000.66;;;13.21;82.50
80624;BME280;70269;44.768;9.600;2023-09-07T03:05:27;98006.09;;;13.21;82.37
80624;BME280;70269;44.768;9.600;2023-09-07T03:07:53;98010.06;;;13.25;82.37
80624;BME280;70269;44.768;9.600;2023-09-07T03:10:19;98007.34;;;13.25;82.69
80624;BME280;70269;44.768;9.600;2023-09-07T03:12:45;98011.06;;;13.30;82.73
80624;BME280;70269;44.768;9.600;2023-09-07T03:15:11;98009.34;;;13.36;82.24
80624;BME280;70269;44.768;9.600;2023-09-07T03:17:38;98001.66;;;13.33;82.19
80624;BME280;70269;44.768;9.600;2023-09-07T03:20:04;98007.50;;;13.30;82.20
80624;BME280;70269;44.768;9.600;2023-09-07T03:22:46;98004.56;;;13.38;81.94
80624;BME280;70269;44.768;9.600;2023-09-07T03:25:13;98005.78;;;13.42;81.53
80624;BME280;70269;44.768;9.600;2023-09-07T03:27:40;98005.16;;;13.40;81.35
80624;BME280;70269;44.768;9.600;2023-09-07T03:30:07;98007.28;;;13.38;81.44
80624;BME280;70269;44.768;9.600;2023-09-07T03:32:34;98005.59;;;13.37;81.78
80624;BME280;70269;44.768;9.600;2023-09-07T03:35:02;98010.56;;;13.40;81.37
80624;BME280;70269;44.768;9.600;2023-09-07T03:37:28;98012.06;;;13.36;81.53
80624;BME280;70269;44.768;9.600;2023-09-07T03:39:55;98015.22;;;13.33;81.29
80624;BME280;70269;44.768;9.600;2023-09-07T03:42:22;98004.00;;;13.23;82.00
80624;BME280;70269;44.768;9.600;2023-09-07T03:44:49;98004.84;;;13.23;81.94
80624;BME280;70269;44.768;9.600;2023-09-07T03:47:14;98004.44;;;13.20;82.07
80624;BME280;70269;44.768;9.600;2023-09-07T03:49:41;98004.44;;;13.20;81.87
80624;BME280;70269;44.768;9.600;2023-09-07T03:52:07;98009.06;;;13.13;82.64
80624;BME280;70269;44.768;9.600;2023-09-07T03:54:32;98008.63;;;13.09;82.76
80624;BME280;70269;44.768;9.600;2023-09-07T03:56:58;98007.56;;;13.10;83.03
80624;BME280;70269;44.768;9.600;2023-09-07T03:59:24;98009.44;;;13.10;83.13
80624;BME280;70269;44.768;9.600;2023-09-07T04:01:49;98006.53;;;13.11;83.24
80624;BME280;70269;44.768;9.600;2023-09-07T04:04:15;98003.81;;;13.11;83.03
80624;BME280;70269;44.768;9.600;2023-09-07T04:06:41;97993.19;;;13.10;83.52
80624;BME280;70269;44.768;9.600;2023-09-07T04:09:06;97998.22;;;13.13;83.06
80624;BME280;70269;44.768;9.600;2023-09-07T04:11:32;97991.50;;;13.15;82.96
80624;BME280;70269;44.768;9.600;2023-09-07T04:13:57;97999.03;;;13.20;82.52
80624;BME280;70269;44.768;9.600;2023-09-07T04:16:23;98000.06;;;13.19;82.20
80624;BME280;70269;44.768;9.600;2023-09-07T04:18:49;98002.59;;;13.14;82.92
80624;BME280;70269;44.768;9.600;2023-09-07T04:21:14;98003.81;;;13.11;82.64
80624;BME280;70269;44.768;9.600;2023-09-07T04:23:40;98001.56;;;13.08;82.54
80624;BME280;70269;44.768;9.600;2023-09-07T04:26:11;98000.94;;;13.06;82.72
80624;BME280;70269;44.768;9.600;2023-09-07T04:28:38;98004.06;;;13.03;82.76
80624;BME280;70269;44.768;9.600;2023-09-07T04:31:05;98005.94;;;13.03;82.56
80624;BME280;70269;44.768;9.600;2023-09-07T04:33:32;98005.16;;;12.95;83.03
80624;BME280;70269;44.768;9.600;2023-09-07T04:36:09;98007.41;;;12.98;83.20
80624;BME280;70269;44.768;9.600;2023-09-07T04:38:37;98009.50;;;12.96;83.38
80624;BME280;70269;44.768;9.600;2023-09-07T04:41:10;98003.28;;;12.96;83.36
80624;BME280;70269;44.768;9.600;2023-09-07T04:43:37;98004.06;;;12.96;83.41
80624;BME280;70269;44.768;9.600;2023-09-07T04:46:06;98011.16;;;13.04;82.93
80624;BME280;70269;44.768;9.600;2023-09-07T04:48:32;98004.88;;;13.04;82.95
80624;BME280;70269;44.768;9.600;2023-09-07T04:51:00;98014.31;;;13.01;83.26
80624;BME280;70269;44.768;9.600;2023-09-07T04:53:31;98013.03;;;13.04;82.91
80624;BME280;70269;44.768;9.600;2023-09-07T04:55:58;98019.06;;;13.06;83.25
80624;BME280;70269;44.768;9.600;2023-09-07T04:58:25;98017.81;;;13.08;83.01
80624;BME280;70269;44.768;9.600;2023-09-07T05:00:51;98015.31;;;13.07;83.34
80624;BME280;70269;44.768;9.600;2023-09-07T05:03:16;98010.06;;;13.12;83.11
80624;BME280;70269;44.768;9.600;2023-09-07T05:05:43;98012.38;;;13.15;82.49
80624;BME280;70269;44.768;9.600;2023-09-07T05:08:09;98009.91;;;13.13;82.99
80624;BME280;70269;44.768;9.600;2023-09-07T05:10:36;98012.78;;;13.18;82.39
80624;BME280;70269;44.768;9.600;2023-09-07T05:13:02;98009.03;;;13.19;82.26
80624;BME280;70269;44.768;9.600;2023-09-07T05:15:28;98017.38;;;13.18;82.41
80624;BME280;70269;44.768;9.600;2023-09-07T05:17:54;98011.50;;;13.21;81.80
80624;BME280;70269;44.768;9.600;2023-09-07T05:20:21;98016.13;;;13.20;82.34
80624;BME280;70269;44.768;9.600;2023-09-07T05:22:47;98020.94;;;13.12;82.80
80624;BME280;70269;44.768;9.600;2023-09-07T05:25:13;98019.47;;;13.16;82.89
80624;BME280;70269;44.768;9.600;2023-09-07T05:27:39;98024.03;;;13.22;82.69
80624;BME280;70269;44.768;9.600;2023-09-07T05:30:05;98021.28;;;13.28;81.76
80624;BME280;70269;44.768;9.600;2023-09-07T05:32:32;98021.50;;;13.27;81.77
80624;BME280;70269;44.768;9.600;2023-09-07T05:34:57;98019.84;;;13.26;81.52
80624;BME280;70269;44.768;9.600;2023-09-07T05:37:24;98021.75;;;13.25;81.98
80624;BME280;70269;44.768;9.600;2023-09-07T05:39:49;98026.31;;;13.25;81.98
80624;BME280;70269;44.768;9.600;2023-09-07T05:42:15;98019.34;;;13.73;80.76
80624;BME280;70269;44.768;9.600;2023-09-07T05:44:41;98029.94;;;14.63;77.75
80624;BME280;70269;44.768;9.600;2023-09-07T05:47:07;98020.78;;;15.30;75.00
80624;BME280;70269;44.768;9.600;2023-09-07T05:49:33;98029.75;;;15.78;72.72
80624;BME280;70269;44.768;9.600;2023-09-07T05:51:59;98030.44;;;16.15;71.01
80624;BME280;70269;44.768;9.600;2023-09-07T05:54:24;98028.09;;;16.54;69.43
80624;BME280;70269;44.768;9.600;2023-09-07T05:56:50;98032.38;;;16.85;68.35
80624;BME280;70269;44.768;9.600;2023-09-07T05:59:16;98028.06;;;17.01;67.96
80624;BME280;70269;44.768;9.600;2023-09-07T06:01:41;98027.00;;;17.02;68.15
80624;BME280;70269;44.768;9.600;2023-09-07T06:04:07;98032.31;;;17.20;67.53
80624;BME280;70269;44.768;9.600;2023-09-07T06:06:33;98023.56;;;17.46;66.47
80624;BME280;70269;44.768;9.600;2023-09-07T06:08:59;98024.88;;;17.44;66.42
80624;BME280;70269;44.768;9.600;2023-09-07T06:11:25;98024.41;;;17.75;65.74
80624;BME280;70269;44.768;9.600;2023-09-07T06:13:51;98025.63;;;17.96;65.02
80624;BME280;70269;44.768;9.600;2023-09-07T06:16:17;98029.16;;;17.96;64.66
80624;BME280;70269;44.768;9.600;2023-09-07T06:18:43;98029.22;;;18.13;64.31
80624;BME280;70269;44.768;9.600;2023-09-07T06:21:09;98015.22;;;18.26;63.51
80624;BME280;70269;44.768;9.600;2023-09-07T06:23:35;98020.91;;;18.41;63.75
80624;BME280;70269;44.768;9.600;2023-09-07T06:26:00;98022.91;;;18.29;63.64
80624;BME280;70269;44.768;9.600;2023-09-07T06:28:27;98016.28;;;18.42;63.31
80624;BME280;70269;44.768;9.600;2023-09-07T06:30:53;98028.03;;;18.42;63.35
80624;BME280;70269;44.768;9.600;2023-09-07T06:33:19;98023.81;;;18.51;62.78
80624;BME280;70269;44.768;9.600;2023-09-07T06:35:45;98015.69;;;18.40;63.09
80624;BME280;70269;44.768;9.600;2023-09-07T06:38:11;98021.44;;;18.55;62.79
80624;BME280;70269;44.768;9.600;2023-09-07T06:40:36;98017.19;;;18.64;62.45
80624;BME280;70269;44.768;9.600;2023-09-07T06:43:02;98017.84;;;18.88;63.15
80624;BME280;70269;44.768;9.600;2023-09-07T06:45:37;98015.63;;;19.07;61.65
80624;BME280;70269;44.768;9.600;2023-09-07T06:48:04;98020.78;;;19.25;61.59
80624;BME280;70269;44.768;9.600;2023-09-07T06:50:30;98027.28;;;19.40;60.83
80624;BME280;70269;44.768;9.600;2023-09-07T06:52:55;98022.91;;;19.45;60.38
80624;BME280;70269;44.768;9.600;2023-09-07T06:55:22;98031.25;;;19.50;60.20
80624;BME280;70269;44.768;9.600;2023-09-07T06:57:47;98027.59;;;19.44;59.82
80624;BME280;70269;44.768;9.600;2023-09-07T07:00:13;98031.84;;;19.35;60.27
80624;BME280;70269;44.768;9.600;2023-09-07T07:02:39;98033.22;;;19.54;60.54
80624;BME280;70269;44.768;9.600;2023-09-07T07:05:05;98033.72;;;19.73;60.21
80624;BME280;70269;44.768;9.600;2023-09-07T07:07:32;98042.06;;;19.88;60.12
80624;BME280;70269;44.768;9.600;2023-09-07T07:09:58;98040.84;;;20.01;59.73
80624;BME280;70269;44.768;9.600;2023-09-07T07:12:24;98034.00;;;20.03;59.44
80624;BME280;70269;44.768;9.600;2023-09-07T07:14:49;98034.09;;;20.13;59.51
80624;BME280;70269;44.768;9.600;2023-09-07T07:17:15;98031.84;;;20.05;59.29
80624;BME280;70269;44.768;9.600;2023-09-07T07:19:41;98031.97;;;20.20;59.45
80624;BME280;70269;44.768;9.600;2023-09-07T07:22:08;98026.66;;;20.36;59.78
80624;BME280;70269;44.768;9.600;2023-09-07T07:24:34;98029.84;;;20.54;58.50
80624;BME280;70269;44.768;9.600;2023-09-07T07:27:00;98019.16;;;20.58;59.42
80624;BME280;70269;44.768;9.600;2023-09-07T07:29:28;98024.78;;;20.78;58.48
80624;BME280;70269;44.768;9.600;2023-09-07T07:31:54;98030.28;;;20.78;58.09
80624;BME280;70269;44.768;9.600;2023-09-07T07:34:20;98023.88;;;20.68;58.22
80624;BME280;70269;44.768;9.600;2023-09-07T07:36:45;98022.56;;;20.80;58.57
80624;BME280;70269;44.768;9.600;2023-09-07T07:39:11;98025.91;;;20.82;58.29
80624;BME280;70269;44.768;9.600;2023-09-07T07:41:36;98027.69;;;21.04;57.06
80624;BME280;70269;44.768;9.600;2023-09-07T07:44:04;98028.22;;;21.06;57.29
80624;BME280;70269;44.768;9.600;2023-09-07T07:46:29;98029.38;;;21.15;57.42
80624;BME280;70269;44.768;9.600;2023-09-07T07:48:55;98027.88;;;21.34;57.94
80624;BME280;70269;44.768;9.600;2023-09-07T07:51:21;98033.19;;;21.61;56.18
80624;BME280;70269;44.768;9.600;2023-09-07T07:53:55;98027.75;;;21.81;55.31
80624;BME280;70269;44.768;9.600;2023-09-07T07:56:24;98023.00;;;21.66;56.69
80624;BME280;70269;44.768;9.600;2023-09-07T07:58:52;98022.56;;;21.95;56.21
80624;BME280;70269;44.768;9.600;2023-09-07T08:01:19;98029.22;;;22.09;55.47
80624;BME280;70269;44.768;9.600;2023-09-07T08:03:52;98026.44;;;21.99;56.04
80624;BME280;70269;44.768;9.600;2023-09-07T08:06:17;98013.53;;;22.30;56.19
80624;BME280;70269;44.768;9.600;2023-09-07T08:08:43;98009.97;;;22.24;54.07
80624;BME280;70269;44.768;9.600;2023-09-07T08:11:10;98014.09;;;22.57;53.99
80624;BME280;70269;44.768;9.600;2023-09-07T08:13:38;98017.38;;;22.79;53.17
80624;BME280;70269;44.768;9.600;2023-09-07T08:16:05;98014.34;;;22.86;52.99
80624;BME280;70269;44.768;9.600;2023-09-07T08:18:33;98019.22;;;23.19;52.75
80624;BME280;70269;44.768;9.600;2023-09-07T08:21:00;98012.00;;;23.33;52.35
80624;BME280;70269;44.768;9.600;2023-09-07T08:23:26;98011.06;;;22.64;53.81
80624;BME280;70269;44.768;9.600;2023-09-07T08:25:52;98015.13;;;22.96;54.62
80624;BME280;70269;44.768;9.600;2023-09-07T08:28:19;98008.69;;;23.36;54.38
80624;BME280;70269;44.768;9.600;2023-09-07T08:30:46;98009.75;;;23.56;54.01
80624;BME280;70269;44.768;9.600;2023-09-07T08:33:11;98008.81;;;23.75;53.22
80624;BME280;70269;44.768;9.600;2023-09-07T08:35:37;98000.25;;;23.13;52.39
80624;BME280;70269;44.768;9.600;2023-09-07T08:38:10;98000.75;;;23.15;53.86
80624;BME280;70269;44.768;9.600;2023-09-07T08:40:36;98003.78;;;23.83;53.27
80624;BME280;70269;44.768;9.600;2023-09-07T08:43:08;97997.47;;;23.82;51.48
80624;BME280;70269;44.768;9.600;2023-09-07T08:45:41;97997.41;;;23.92;53.17
80624;BME280;70269;44.768;9.600;2023-09-07T08:48:08;98003.59;;;23.69;51.82
80624;BME280;70269;44.768;9.600;2023-09-07T08:50:36;98005.00;;;24.10;51.32
80624;BME280;70269;44.768;9.600;2023-09-07T08:53:03;98013.03;;;24.46;50.44
80624;BME280;70269;44.768;9.600;2023-09-07T08:55:29;98003.31;;;24.53;49.84
80624;BME280;70269;44.768;9.600;2023-09-07T08:57:56;98007.59;;;24.36;49.00
80624;BME280;70269;44.768;9.600;2023-09-07T09:00:23;98002.31;;;24.39;50.55
80624;BME280;70269;44.768;9.600;2023-09-07T09:02:49;97991.97;;;24.55;50.06
80624;BME280;70269;44.768;9.600;2023-09-07T09:05:15;98001.22;;;24.69;49.91
80624;BME280;70269;44.768;9.600;2023-09-07T09:07:43;98008.16;;;24.38;50.07
80624;BME280;70269;44.768;9.600;2023-09-07T09:10:09;97999.28;;;24.41;50.81
80624;BME280;70269;44.768;9.600;2023-09-07T09:12:35;98002.91;;;24.36;49.73
80624;BME280;70269;44.768;9.600;2023-09-07T09:15:01;97990.06;;;24.50;49.56
80624;BME280;70269;44.768;9.600;2023-09-07T09:17:28;97986.50;;;24.50;49.73
80624;BME280;70269;44.768;9.600;2023-09-07T09:19:54;97988.06;;;24.27;49.62
80624;BME280;70269;44.768;9.600;2023-09-07T09:22:20;97991.03;;;24.65;51.14
80624;BME280;70269;44.768;9.600;2023-09-07T09:24:48;97991.09;;;24.26;51.65
80624;BME280;70269;44.768;9.600;2023-09-07T09:27:14;97992.34;;;24.72;48.19
80624;BME280;70269;44.768;9.600;2023-09-07T09:29:39;97994.19;;;24.53;49.40
80624;BME280;70269;44.768;9.600;2023-09-07T09:32:07;97990.41;;;24.44;48.35
80624;BME280;70269;44.768;9.600;2023-09-07T09:34:34;97990.16;;;24.69;48.94
80624;BME280;70269;44.768;9.600;2023-09-07T09:37:01;97992.47;;;24.91;49.29
80624;BME280;70269;44.768;9.600;2023-09-07T09:39:29;97988.13;;;24.80;47.00
80624;BME280;70269;44.768;9.600;2023-09-07T09:41:55;97993.34;;;24.81;45.88
80624;BME280;70269;44.768;9.600;2023-09-07T09:44:22;97986.84;;;24.72;46.88
80624;BME280;70269;44.768;9.600;2023-09-07T09:46:54;97990.22;;;24.35;45.72
80624;BME280;70269;44.768;9.600;2023-09-07T09:49:21;97981.03;;;24.74;45.60
80624;BME280;70269;44.768;9.600;2023-09-07T09:51:50;97984.06;;;24.72;45.56
80624;BME280;70269;44.768;9.600;2023-09-07T09:54:20;97985.59;;;24.83;44.26
80624;BME280;70269;44.768;9.600;2023-09-07T09:56:47;97979.09;;;24.74;43.31
80624;BME280;70269;44.768;9.600;2023-09-07T09:59:14;97978.78;;;24.76;43.58
80624;BME280;70269;44.768;9.600;2023-09-07T10:01:44;97975.84;;;24.67;43.81
80624;BME280;70269;44.768;9.600;2023-09-07T10:04:12;97969.56;;;24.85;44.54
80624;BME280;70269;44.768;9.600;2023-09-07T10:06:38;97976.34;;;24.69;43.54
80624;BME280;70269;44.768;9.600;2023-09-07T10:09:07;97970.03;;;24.69;44.77
80624;BME280;70269;44.768;9.600;2023-09-07T10:11:39;97966.31;;;24.78;44.61
80624;BME280;70269;44.768;9.600;2023-09-07T10:14:06;97972.69;;;24.79;44.28
80624;BME280;70269;44.768;9.600;2023-09-07T10:16:45;97977.19;;;24.98;43.67
80624;BME280;70269;44.768;9.600;2023-09-07T10:19:21;97965.47;;;24.54;43.46
80624;BME280;70269;44.768;9.600;2023-09-07T10:21:48;97967.88;;;24.89;44.65
80624;BME280;70269;44.768;9.600;2023-09-07T10:24:30;97963.44;;;25.17;44.92
80624;BME280;70269;44.768;9.600;2023-09-07T10:27:02;97964.00;;;24.90;44.40
80624;BME280;70269;44.768;9.600;2023-09-07T10:29:44;97970.66;;;24.89;42.53
80624;BME280;70269;44.768;9.600;2023-09-07T10:32:10;97970.56;;;25.00;44.39
80624;BME280;70269;44.768;9.600;2023-09-07T10:34:39;97961.34;;;24.80;43.00
80624;BME280;70269;44.768;9.600;2023-09-07T10:37:07;97957.38;;;24.91;44.15
80624;BME280;70269;44.768;9.600;2023-09-07T10:39:35;97953.50;;;24.87;42.84
80624;BME280;70269;44.768;9.600;2023-09-07T10:42:02;97953.06;;;24.80;43.39
80624;BME280;70269;44.768;9.600;2023-09-07T10:44:28;97951.09;;;25.10;44.13
80624;BME280;70269;44.768;9.600;2023-09-07T10:46:56;97950.50;;;24.60;42.78
80624;BME280;70269;44.768;9.600;2023-09-07T10:49:22;97950.44;;;24.65;43.44
80624;BME280;70269;44.768;9.600;2023-09-07T10:51:48;97941.91;;;24.90;42.46
80624;BME280;70269;44.768;9.600;2023-09-07T10:54:18;97941.31;;;24.93;42.97
80624;BME280;70269;44.768;9.600;2023-09-07T10:56:47;97947.63;;;24.99;41.80
80624;BME280;70269;44.768;9.600;2023-09-07T10:59:13;97944.44;;;24.58;42.05
80624;BME280;70269;44.768;9.600;2023-09-07T11:01:39;97930.41;;;24.78;42.45
80624;BME280;70269;44.768;9.600;2023-09-07T11:04:04;97924.28;;;24.81;42.99
80624;BME280;70269;44.768;9.600;2023-09-07T11:06:33;97938.09;;;24.81;42.53
80624;BME280;70269;44.768;9.600;2023-09-07T11:09:00;97928.56;;;24.97;41.39
80624;BME280;70269;44.768;9.600;2023-09-07T11:11:26;97925.56;;;24.94;43.05
80624;BME280;70269;44.768;9.600;2023-09-07T11:13:52;97937.47;;;25.13;42.47
80624;BME280;70269;44.768;9.600;2023-09-07T11:16:18;97919.19;;;24.93;41.33
80624;BME280;70269;44.768;9.600;2023-09-07T11:18:45;97928.63;;;24.92;41.82
80624;BME280;70269;44.768;9.600;2023-09-07T11:21:11;97928.63;;;24.92;41.83
80624;BME280;70269;44.768;9.600;2023-09-07T11:23:37;97926.38;;;24.94;41.18
80624;BME280;70269;44.768;9.600;2023-09-07T11:26:07;97928.38;;;25.13;41.42
80624;BME280;70269;44.768;9.600;2023-09-07T11:28:33;97915.88;;;24.96;41.59
80624;BME280;70269;44.768;9.600;2023-09-07T11:30:59;97922.00;;;24.88;42.60
80624;BME280;70269;44.768;9.600;2023-09-07T11:33:26;97920.34;;;24.92;42.13
80624;BME280;70269;44.768;9.600;2023-09-07T11:35:53;97918.69;;;24.91;43.26
80624;BME280;70269;44.768;9.600;2023-09-07T11:38:21;97911.81;;;24.89;42.48
80624;BME280;70269;44.768;9.600;2023-09-07T11:40:47;97922.13;;;25.26;42.47
80624;BME280;70269;44.768;9.600;2023-09-07T11:43:17;97909.91;;;25.08;42.65
80624;BME280;70269;44.768;9.600;2023-09-07T11:45:46;97896.84;;;25.14;42.43
80624;BME280;70269;44.768;9.600;2023-09-07T11:48:11;97896.38;;;25.07;41.88
80624;BME280;70269;44.768;9.600;2023-09-07T11:50:38;97911.31;;;25.29;41.95
80624;BME280;70269;44.768;9.600;2023-09-07T11:53:04;97905.91;;;24.95;41.27
80624;BME280;70269;44.768;9.600;2023-09-07T11:55:30;97901.47;;;25.18;42.88
80624;BME280;70269;44.768;9.600;2023-09-07T11:57:56;97889.66;;;25.13;41.19
80624;BME280;70269;44.768;9.600;2023-09-07T12:00:22;97893.13;;;25.05;41.50
80624;BME280;70269;44.768;9.600;2023-09-07T12:02:48;97908.34;;;25.02;41.74
80624;BME280;70269;44.768;9.600;2023-09-07T12:05:13;97905.44;;;25.12;41.86
80624;BME280;70269;44.768;9.600;2023-09-07T12:07:41;97899.22;;;25.02;41.01
80624;BME280;70269;44.768;9.600;2023-09-07T12:10:11;97893.75;;;24.96;42.35
80624;BME280;70269;44.768;9.600;2023-09-07T12:12:37;97886.47;;;25.06;39.46
80624;BME280;70269;44.768;9.600;2023-09-07T12:15:03;97886.56;;;24.95;39.67
80624;BME280;70269;44.768;9.600;2023-09-07T12:17:33;97882.56;;;25.07;40.01
80624;BME280;70269;44.768;9.600;2023-09-07T12:19:59;97887.59;;;25.05;40.37
80624;BME280;70269;44.768;9.600;2023-09-07T12:22:26;97877.19;;;24.96;38.84
80624;BME280;70269;44.768;9.600;2023-09-07T12:24:51;97872.19;;;24.98;40.43
80624;BME280;70269;44.768;9.600;2023-09-07T12:27:17;97871.91;;;25.37;39.66
80624;BME280;70269;44.768;9.600;2023-09-07T12:29:43;97878.63;;;25.13;39.27
80624;BME280;70269;44.768;9.600;2023-09-07T12:32:09;97864.28;;;25.11;39.03
80624;BME280;70269;44.768;9.600;2023-09-07T12:34:34;97860.03;;;25.00;39.26
80624;BME280;70269;44.768;9.600;2023-09-07T12:37:01;97856.06;;;25.06;38.37
80624;BME280;70269;44.768;9.600;2023-09-07T12:39:30;97854.28;;;25.15;39.82
80624;BME280;70269;44.768;9.600;2023-09-07T12:41:55;97855.47;;;25.27;38.33
80624;BME280;70269;44.768;9.600;2023-09-07T12:44:20;97857.34;;;25.32;36.73
80624;BME280;70269;44.768;9.600;2023-09-07T12:46:46;97860.19;;;25.27;36.72
80624;BME280;70269;44.768;9.600;2023-09-07T12:49:12;97845.00;;;25.24;37.43
80624;BME280;70269;44.768;9.600;2023-09-07T12:51:40;97846.44;;;25.22;39.02
80624;BME280;70269;44.768;9.600;2023-09-07T12:54:06;97849.19;;;25.22;34.99
80624;BME280;70269;44.768;9.600;2023-09-07T12:56:32;97851.59;;;25.28;33.07
80624;BME280;70269;44.768;9.600;2023-09-07T12:58:57;97849.13;;;25.27;33.79